메인 페이지
METAR-TAF:

METAR-TAF

공항 :

와가두구, 부르키나파소

위도: 12-21N, 경도: 001-31W, 고도: 316m

현재 날씨관측

예보는 54분 전, 02:00시(UTC)에 발표되었습니다.
북서6kt풍과 풍을 오가는
온도 30°C
습도 43%
기압 1009 hPa
시정 10km 이상
고도 2600ft 상공 구름 조금
고도 4000ft 상공 구름 조금, 적란운.
뇌우

METAR: DFFD 190200Z 31006KT 270V360 9999 TS FEW026 FEW040CB 30/16 Q1009 TEMPO 4000 TSRA

시각: 02:54 (02:54 UTC)

예보

예보는 3 시간 54분 전, 23:00시(UTC)에 발표되었습니다.
예보 대상 시간: 19일 00시부터 20일 06시까지 (UTC)
여러 방향의 바람 7kt
시정: 8000m
확률 30% :
일시적
19일 00시부터 19일 06시까지 (UTC)
시정: 4000m
고도 2600ft 상공 구름 보통
고도 4000ft 상공 구름 조금, 적란운.
뇌우, 비
확률 30% :
일시적
19일 06시부터 19일 10시까지 (UTC)
시정: 4000m
황사
확률 30% :
일시적
19일 16시부터 20일 04시까지 (UTC)
시정: 4000m
고도 2600ft 상공 구름 보통
고도 4000ft 상공 구름 조금, 적란운.
뇌우, 비

TAF: DFFD 182300Z 1900/2006 VRB07KT 8000 NSC PROB30 TEMPO 1900/1906 4000 TSRA SCT026 FEW040CB PROB30 TEMPO 1906/1910 4000 DU PROB30 TEMPO 1916/2004 4000 TSRA SCT026 FEW040CB

4,000개 이상의 공항 관측 자료 및 예보 (METAR 및 TAF 보고).

지도상에서 검색 가능한 기상관측소가 노란 점과 빨간 점으로 표시되어 있습니다.

기상관측소 명을 보려면 표시 위로 마우스를 이동하세요.

날씨 관측과 예보를 보려면 클릭하세요.

지도 변경 : 확대하려면 엑스 표시가 있는 녹색 버튼, 축소하려면 빼기 표시가 있는 녹색 버튼, 다음 페이지의 지도를 보려면 녹색 화살표를 클릭하세요.


METAR-TAF: